sensor_id;sensor_type;location;lat;lon;timestamp;P1;durP1;ratioP1;P2;durP2;ratioP2
20229;SDS011;12195;55.790;37.572;2024-01-10T00:02:03;2.95;;;1.95;;
20229;SDS011;12195;55.790;37.572;2024-01-10T00:04:36;4.28;;;2.20;;
20229;SDS011;12195;55.790;37.572;2024-01-10T00:07:09;3.30;;;2.10;;
20229;SDS011;12195;55.790;37.572;2024-01-10T00:09:42;4.13;;;2.43;;
20229;SDS011;12195;55.790;37.572;2024-01-10T00:12:16;2.00;;;1.20;;
20229;SDS011;12195;55.790;37.572;2024-01-10T00:14:49;2.67;;;1.92;;
20229;SDS011;12195;55.790;37.572;2024-01-10T00:17:21;3.58;;;1.20;;
20229;SDS011;12195;55.790;37.572;2024-01-10T00:19:54;1.17;;;0.90;;
20229;SDS011;12195;55.790;37.572;2024-01-10T00:22:27;3.57;;;1.40;;
20229;SDS011;12195;55.790;37.572;2024-01-10T00:25:00;2.75;;;1.20;;
20229;SDS011;12195;55.790;37.572;2024-01-10T00:27:32;2.12;;;1.07;;
20229;SDS011;12195;55.790;37.572;2024-01-10T00:30:05;2.58;;;1.00;;
20229;SDS011;12195;55.790;37.572;2024-01-10T00:32:39;1.85;;;1.00;;
20229;SDS011;12195;55.790;37.572;2024-01-10T00:35:12;1.43;;;0.90;;
20229;SDS011;12195;55.790;37.572;2024-01-10T00:37:45;0.65;;;0.60;;
20229;SDS011;12195;55.790;37.572;2024-01-10T00:40:17;2.65;;;0.95;;
20229;SDS011;12195;55.790;37.572;2024-01-10T00:42:50;1.20;;;0.90;;
20229;SDS011;12195;55.790;37.572;2024-01-10T00:45:22;0.72;;;0.60;;
20229;SDS011;12195;55.790;37.572;2024-01-10T00:47:55;0.67;;;0.60;;
20229;SDS011;12195;55.790;37.572;2024-01-10T00:50:28;0.72;;;0.50;;
20229;SDS011;12195;55.790;37.572;2024-01-10T00:53:00;1.00;;;0.70;;
20229;SDS011;12195;55.790;37.572;2024-01-10T00:55:33;1.02;;;0.60;;
20229;SDS011;12195;55.790;37.572;2024-01-10T00:58:05;0.70;;;0.50;;
20229;SDS011;12195;55.790;37.572;2024-01-10T01:00:38;0.30;;;0.30;;
20229;SDS011;12195;55.790;37.572;2024-01-10T01:03:11;0.62;;;0.60;;
20229;SDS011;12195;55.790;37.572;2024-01-10T01:05:43;0.65;;;0.50;;
20229;SDS011;12195;55.790;37.572;2024-01-10T01:08:16;0.75;;;0.50;;
20229;SDS011;12195;55.790;37.572;2024-01-10T01:10:48;0.40;;;0.37;;
20229;SDS011;12195;55.790;37.572;2024-01-10T01:13:21;0.40;;;0.40;;
20229;SDS011;12195;55.790;37.572;2024-01-10T01:15:53;0.50;;;0.50;;
20229;SDS011;12195;55.790;37.572;2024-01-10T01:18:26;1.05;;;0.60;;
20229;SDS011;12195;55.790;37.572;2024-01-10T01:20:58;0.50;;;0.50;;
20229;SDS011;12195;55.790;37.572;2024-01-10T01:23:31;1.05;;;0.42;;
20229;SDS011;12195;55.790;37.572;2024-01-10T01:26:05;0.68;;;0.42;;
20229;SDS011;12195;55.790;37.572;2024-01-10T01:28:38;4.03;;;0.40;;
20229;SDS011;12195;55.790;37.572;2024-01-10T01:31:11;0.40;;;0.40;;
20229;SDS011;12195;55.790;37.572;2024-01-10T01:33:43;0.93;;;0.30;;
20229;SDS011;12195;55.790;37.572;2024-01-10T01:36:16;0.37;;;0.37;;
20229;SDS011;12195;55.790;37.572;2024-01-10T01:38:50;0.50;;;0.47;;
20229;SDS011;12195;55.790;37.572;2024-01-10T01:41:22;1.05;;;0.53;;
20229;SDS011;12195;55.790;37.572;2024-01-10T01:43:55;0.47;;;0.47;;
20229;SDS011;12195;55.790;37.572;2024-01-10T01:46:27;0.78;;;0.47;;
20229;SDS011;12195;55.790;37.572;2024-01-10T01:49:00;0.55;;;0.30;;
20229;SDS011;12195;55.790;37.572;2024-01-10T01:51:33;0.20;;;0.20;;
20229;SDS011;12195;55.790;37.572;2024-01-10T01:54:08;0.50;;;0.37;;
20229;SDS011;12195;55.790;37.572;2024-01-10T01:56:42;0.23;;;0.23;;
20229;SDS011;12195;55.790;37.572;2024-01-10T01:59:16;0.25;;;0.25;;
20229;SDS011;12195;55.790;37.572;2024-01-10T02:01:49;0.45;;;0.40;;
20229;SDS011;12195;55.790;37.572;2024-01-10T02:04:23;0.40;;;0.33;;
20229;SDS011;12195;55.790;37.572;2024-01-10T02:06:57;1.60;;;0.30;;
20229;SDS011;12195;55.790;37.572;2024-01-10T02:09:30;0.30;;;0.30;;
20229;SDS011;12195;55.790;37.572;2024-01-10T02:12:02;0.50;;;0.40;;
20229;SDS011;12195;55.790;37.572;2024-01-10T02:14:35;0.20;;;0.20;;
20229;SDS011;12195;55.790;37.572;2024-01-10T02:17:08;0.50;;;0.35;;
20229;SDS011;12195;55.790;37.572;2024-01-10T02:19:41;0.93;;;0.28;;
20229;SDS011;12195;55.790;37.572;2024-01-10T02:22:13;1.35;;;0.42;;
20229;SDS011;12195;55.790;37.572;2024-01-10T02:24:52;0.23;;;0.23;;
20229;SDS011;12195;55.790;37.572;2024-01-10T02:27:21;0.20;;;0.20;;
20229;SDS011;12195;55.790;37.572;2024-01-10T02:29:54;0.10;;;0.10;;
20229;SDS011;12195;55.790;37.572;2024-01-10T02:32:28;0.28;;;0.28;;
20229;SDS011;12195;55.790;37.572;2024-01-10T02:35:01;0.30;;;0.30;;
20229;SDS011;12195;55.790;37.572;2024-01-10T02:37:34;1.35;;;0.60;;
20229;SDS011;12195;55.790;37.572;2024-01-10T02:42:40;0.80;;;0.20;;
20229;SDS011;12195;55.790;37.572;2024-01-10T02:45:13;5.35;;;0.42;;
20229;SDS011;12195;55.790;37.572;2024-01-10T02:47:46;0.40;;;0.37;;
20229;SDS011;12195;55.790;37.572;2024-01-10T02:50:18;0.20;;;0.20;;
20229;SDS011;12195;55.790;37.572;2024-01-10T02:52:51;0.20;;;0.20;;
20229;SDS011;12195;55.790;37.572;2024-01-10T02:55:24;3.75;;;0.50;;
20229;SDS011;12195;55.790;37.572;2024-01-10T02:57:56;1.07;;;0.47;;
20229;SDS011;12195;55.790;37.572;2024-01-10T03:00:29;0.40;;;0.40;;
20229;SDS011;12195;55.790;37.572;2024-01-10T03:03:02;0.50;;;0.50;;
20229;SDS011;12195;55.790;37.572;2024-01-10T03:05:35;0.72;;;0.60;;
20229;SDS011;12195;55.790;37.572;2024-01-10T03:08:07;1.32;;;0.68;;
20229;SDS011;12195;55.790;37.572;2024-01-10T03:10:40;0.50;;;0.50;;
20229;SDS011;12195;55.790;37.572;2024-01-10T03:13:13;0.90;;;0.62;;
20229;SDS011;12195;55.790;37.572;2024-01-10T03:15:45;0.28;;;0.20;;
20229;SDS011;12195;55.790;37.572;2024-01-10T03:18:18;1.87;;;0.50;;
20229;SDS011;12195;55.790;37.572;2024-01-10T03:20:51;1.72;;;0.82;;
20229;SDS011;12195;55.790;37.572;2024-01-10T03:23:24;4.95;;;1.02;;
20229;SDS011;12195;55.790;37.572;2024-01-10T03:25:58;6.03;;;1.47;;
20229;SDS011;12195;55.790;37.572;2024-01-10T03:28:31;2.00;;;0.90;;
20229;SDS011;12195;55.790;37.572;2024-01-10T03:31:03;1.37;;;0.80;;
20229;SDS011;12195;55.790;37.572;2024-01-10T03:33:36;1.47;;;1.15;;
20229;SDS011;12195;55.790;37.572;2024-01-10T03:36:11;2.45;;;0.70;;
20229;SDS011;12195;55.790;37.572;2024-01-10T03:38:45;1.67;;;1.02;;
20229;SDS011;12195;55.790;37.572;2024-01-10T03:41:18;5.20;;;1.52;;
20229;SDS011;12195;55.790;37.572;2024-01-10T03:43:52;3.52;;;1.87;;
20229;SDS011;12195;55.790;37.572;2024-01-10T03:46:25;2.22;;;1.15;;
20229;SDS011;12195;55.790;37.572;2024-01-10T03:48:58;3.05;;;1.77;;
20229;SDS011;12195;55.790;37.572;2024-01-10T03:51:32;6.58;;;2.15;;
20229;SDS011;12195;55.790;37.572;2024-01-10T03:54:04;7.05;;;2.27;;
20229;SDS011;12195;55.790;37.572;2024-01-10T03:56:37;2.80;;;2.05;;
20229;SDS011;12195;55.790;37.572;2024-01-10T03:59:10;6.53;;;3.30;;
20229;SDS011;12195;55.790;37.572;2024-01-10T04:01:43;3.25;;;2.10;;
20229;SDS011;12195;55.790;37.572;2024-01-10T04:04:16;6.43;;;3.33;;
20229;SDS011;12195;55.790;37.572;2024-01-10T04:06:50;5.92;;;3.10;;
20229;SDS011;12195;55.790;37.572;2024-01-10T04:09:23;9.23;;;3.92;;
20229;SDS011;12195;55.790;37.572;2024-01-10T04:11:56;9.70;;;3.98;;
20229;SDS011;12195;55.790;37.572;2024-01-10T04:14:29;10.68;;;4.65;;
20229;SDS011;12195;55.790;37.572;2024-01-10T04:17:02;4.70;;;2.92;;
20229;SDS011;12195;55.790;37.572;2024-01-10T04:19:37;6.30;;;3.75;;
20229;SDS011;12195;55.790;37.572;2024-01-10T04:22:12;8.15;;;3.05;;
20229;SDS011;12195;55.790;37.572;2024-01-10T04:24:46;8.08;;;4.33;;
20229;SDS011;12195;55.790;37.572;2024-01-10T04:27:20;10.45;;;3.12;;
20229;SDS011;12195;55.790;37.572;2024-01-10T04:29:53;7.28;;;3.77;;
20229;SDS011;12195;55.790;37.572;2024-01-10T04:34:58;6.05;;;2.90;;
20229;SDS011;12195;55.790;37.572;2024-01-10T04:37:32;9.50;;;5.05;;
20229;SDS011;12195;55.790;37.572;2024-01-10T04:40:06;7.47;;;3.75;;
20229;SDS011;12195;55.790;37.572;2024-01-10T04:42:40;14.13;;;7.92;;
20229;SDS011;12195;55.790;37.572;2024-01-10T04:45:13;9.18;;;3.67;;
20229;SDS011;12195;55.790;37.572;2024-01-10T04:50:18;7.95;;;4.45;;
20229;SDS011;12195;55.790;37.572;2024-01-10T04:52:52;6.55;;;3.83;;
20229;SDS011;12195;55.790;37.572;2024-01-10T04:55:26;3.75;;;2.67;;
20229;SDS011;12195;55.790;37.572;2024-01-10T04:58:01;6.20;;;4.00;;
20229;SDS011;12195;55.790;37.572;2024-01-10T05:00:35;6.35;;;3.70;;
20229;SDS011;12195;55.790;37.572;2024-01-10T05:03:10;6.35;;;3.15;;
20229;SDS011;12195;55.790;37.572;2024-01-10T05:05:44;7.15;;;4.35;;
20229;SDS011;12195;55.790;37.572;2024-01-10T05:08:19;8.70;;;4.25;;
20229;SDS011;12195;55.790;37.572;2024-01-10T05:10:52;5.97;;;3.85;;
20229;SDS011;12195;55.790;37.572;2024-01-10T05:13:25;8.88;;;3.33;;
20229;SDS011;12195;55.790;37.572;2024-01-10T05:15:58;7.20;;;4.58;;
20229;SDS011;12195;55.790;37.572;2024-01-10T05:18:31;8.63;;;3.92;;
20229;SDS011;12195;55.790;37.572;2024-01-10T05:21:04;8.95;;;4.12;;
20229;SDS011;12195;55.790;37.572;2024-01-10T05:23:38;3.45;;;2.40;;
20229;SDS011;12195;55.790;37.572;2024-01-10T05:26:11;6.03;;;3.20;;
20229;SDS011;12195;55.790;37.572;2024-01-10T05:28:44;9.00;;;4.87;;
20229;SDS011;12195;55.790;37.572;2024-01-10T05:31:17;7.53;;;4.50;;
20229;SDS011;12195;55.790;37.572;2024-01-10T05:33:56;5.10;;;3.62;;
20229;SDS011;12195;55.790;37.572;2024-01-10T05:36:29;11.15;;;4.12;;
20229;SDS011;12195;55.790;37.572;2024-01-10T05:39:04;8.60;;;4.78;;
20229;SDS011;12195;55.790;37.572;2024-01-10T05:41:38;6.25;;;4.12;;
20229;SDS011;12195;55.790;37.572;2024-01-10T05:44:13;7.95;;;3.72;;
20229;SDS011;12195;55.790;37.572;2024-01-10T05:46:46;4.27;;;2.37;;
20229;SDS011;12195;55.790;37.572;2024-01-10T05:49:20;10.08;;;4.28;;
20229;SDS011;12195;55.790;37.572;2024-01-10T05:51:53;7.85;;;4.37;;
20229;SDS011;12195;55.790;37.572;2024-01-10T05:54:28;6.08;;;2.55;;
20229;SDS011;12195;55.790;37.572;2024-01-10T05:57:02;5.50;;;3.30;;
20229;SDS011;12195;55.790;37.572;2024-01-10T05:59:36;6.97;;;3.80;;
20229;SDS011;12195;55.790;37.572;2024-01-10T06:02:14;7.80;;;3.30;;
20229;SDS011;12195;55.790;37.572;2024-01-10T06:04:48;7.80;;;3.75;;
20229;SDS011;12195;55.790;37.572;2024-01-10T06:07:23;4.60;;;2.95;;
20229;SDS011;12195;55.790;37.572;2024-01-10T06:09:56;7.37;;;3.05;;
20229;SDS011;12195;55.790;37.572;2024-01-10T06:12:32;5.17;;;3.12;;
20229;SDS011;12195;55.790;37.572;2024-01-10T06:15:06;8.85;;;4.87;;
20229;SDS011;12195;55.790;37.572;2024-01-10T06:17:40;8.08;;;3.17;;
20229;SDS011;12195;55.790;37.572;2024-01-10T06:20:13;6.93;;;3.00;;
20229;SDS011;12195;55.790;37.572;2024-01-10T06:22:48;6.45;;;3.92;;
20229;SDS011;12195;55.790;37.572;2024-01-10T06:25:22;6.67;;;3.80;;
20229;SDS011;12195;55.790;37.572;2024-01-10T06:27:56;6.58;;;4.30;;
20229;SDS011;12195;55.790;37.572;2024-01-10T06:30:29;8.13;;;4.10;;
20229;SDS011;12195;55.790;37.572;2024-01-10T06:33:02;5.17;;;3.55;;
20229;SDS011;12195;55.790;37.572;2024-01-10T06:35:38;6.92;;;3.98;;
20229;SDS011;12195;55.790;37.572;2024-01-10T06:38:10;4.45;;;3.45;;
20229;SDS011;12195;55.790;37.572;2024-01-10T06:40:44;6.55;;;3.58;;
20229;SDS011;12195;55.790;37.572;2024-01-10T06:43:19;3.15;;;2.12;;
20229;SDS011;12195;55.790;37.572;2024-01-10T06:45:53;2.80;;;2.00;;
20229;SDS011;12195;55.790;37.572;2024-01-10T06:48:27;4.78;;;3.22;;
20229;SDS011;12195;55.790;37.572;2024-01-10T06:51:01;6.53;;;3.65;;
20229;SDS011;12195;55.790;37.572;2024-01-10T06:53:35;5.08;;;2.70;;
20229;SDS011;12195;55.790;37.572;2024-01-10T06:56:09;3.83;;;2.30;;
20229;SDS011;12195;55.790;37.572;2024-01-10T06:58:43;3.77;;;2.17;;
20229;SDS011;12195;55.790;37.572;2024-01-10T07:01:16;9.73;;;3.33;;
20229;SDS011;12195;55.790;37.572;2024-01-10T07:03:53;8.90;;;3.47;;
20229;SDS011;12195;55.790;37.572;2024-01-10T07:06:30;5.92;;;3.37;;
20229;SDS011;12195;55.790;37.572;2024-01-10T07:09:03;2.55;;;1.87;;
20229;SDS011;12195;55.790;37.572;2024-01-10T07:11:37;6.78;;;4.10;;
20229;SDS011;12195;55.790;37.572;2024-01-10T07:14:11;9.90;;;4.78;;
20229;SDS011;12195;55.790;37.572;2024-01-10T07:16:47;6.58;;;3.12;;
20229;SDS011;12195;55.790;37.572;2024-01-10T07:19:21;6.53;;;3.50;;
20229;SDS011;12195;55.790;37.572;2024-01-10T07:21:56;7.87;;;3.95;;
20229;SDS011;12195;55.790;37.572;2024-01-10T07:24:32;6.20;;;3.30;;
20229;SDS011;12195;55.790;37.572;2024-01-10T07:27:06;5.53;;;2.95;;
20229;SDS011;12195;55.790;37.572;2024-01-10T07:29:41;7.80;;;3.35;;
20229;SDS011;12195;55.790;37.572;2024-01-10T07:32:16;10.72;;;4.67;;
20229;SDS011;12195;55.790;37.572;2024-01-10T07:34:51;6.30;;;3.20;;
20229;SDS011;12195;55.790;37.572;2024-01-10T07:37:33;7.30;;;3.52;;
20229;SDS011;12195;55.790;37.572;2024-01-10T07:40:07;3.70;;;2.62;;
20229;SDS011;12195;55.790;37.572;2024-01-10T07:42:43;6.15;;;3.98;;
20229;SDS011;12195;55.790;37.572;2024-01-10T07:45:16;9.88;;;4.65;;
20229;SDS011;12195;55.790;37.572;2024-01-10T07:47:50;3.90;;;2.98;;
20229;SDS011;12195;55.790;37.572;2024-01-10T07:50:25;7.33;;;3.65;;
20229;SDS011;12195;55.790;37.572;2024-01-10T07:53:00;7.72;;;3.80;;
20229;SDS011;12195;55.790;37.572;2024-01-10T07:55:34;4.25;;;2.60;;
20229;SDS011;12195;55.790;37.572;2024-01-10T07:58:10;6.10;;;2.67;;
20229;SDS011;12195;55.790;37.572;2024-01-10T08:00:46;6.83;;;3.62;;
20229;SDS011;12195;55.790;37.572;2024-01-10T08:03:22;8.38;;;2.77;;
20229;SDS011;12195;55.790;37.572;2024-01-10T08:05:56;8.03;;;3.40;;
20229;SDS011;12195;55.790;37.572;2024-01-10T08:08:31;6.58;;;3.33;;
20229;SDS011;12195;55.790;37.572;2024-01-10T08:11:08;6.22;;;3.08;;
20229;SDS011;12195;55.790;37.572;2024-01-10T08:13:42;5.22;;;2.75;;
20229;SDS011;12195;55.790;37.572;2024-01-10T08:16:15;8.95;;;3.05;;
20229;SDS011;12195;55.790;37.572;2024-01-10T08:18:50;7.67;;;3.20;;
20229;SDS011;12195;55.790;37.572;2024-01-10T08:21:25;8.78;;;4.05;;
20229;SDS011;12195;55.790;37.572;2024-01-10T08:26:32;4.43;;;2.67;;
20229;SDS011;12195;55.790;37.572;2024-01-10T08:29:06;8.73;;;3.17;;
20229;SDS011;12195;55.790;37.572;2024-01-10T08:31:39;7.53;;;3.40;;
20229;SDS011;12195;55.790;37.572;2024-01-10T08:34:14;4.42;;;2.75;;
20229;SDS011;12195;55.790;37.572;2024-01-10T08:36:50;5.03;;;2.95;;
20229;SDS011;12195;55.790;37.572;2024-01-10T08:39:24;5.45;;;2.50;;
20229;SDS011;12195;55.790;37.572;2024-01-10T08:41:59;7.62;;;3.65;;
20229;SDS011;12195;55.790;37.572;2024-01-10T08:44:34;5.78;;;2.87;;
20229;SDS011;12195;55.790;37.572;2024-01-10T08:47:08;8.75;;;3.62;;
20229;SDS011;12195;55.790;37.572;2024-01-10T08:49:43;6.83;;;3.42;;
20229;SDS011;12195;55.790;37.572;2024-01-10T08:52:17;4.15;;;3.05;;
20229;SDS011;12195;55.790;37.572;2024-01-10T08:54:51;5.62;;;3.02;;
20229;SDS011;12195;55.790;37.572;2024-01-10T08:57:24;7.33;;;3.47;;
20229;SDS011;12195;55.790;37.572;2024-01-10T09:00:00;7.03;;;3.00;;
20229;SDS011;12195;55.790;37.572;2024-01-10T09:02:35;9.90;;;3.72;;
20229;SDS011;12195;55.790;37.572;2024-01-10T09:05:12;8.60;;;4.28;;
20229;SDS011;12195;55.790;37.572;2024-01-10T09:07:46;39.92;;;8.38;;
20229;SDS011;12195;55.790;37.572;2024-01-10T09:10:21;9.83;;;4.15;;
20229;SDS011;12195;55.790;37.572;2024-01-10T09:12:54;7.45;;;3.87;;
20229;SDS011;12195;55.790;37.572;2024-01-10T09:15:29;5.97;;;3.77;;
20229;SDS011;12195;55.790;37.572;2024-01-10T09:18:03;7.10;;;4.12;;
20229;SDS011;12195;55.790;37.572;2024-01-10T09:20:37;6.40;;;4.15;;
20229;SDS011;12195;55.790;37.572;2024-01-10T09:23:11;10.15;;;5.00;;
20229;SDS011;12195;55.790;37.572;2024-01-10T09:25:45;12.40;;;7.03;;
20229;SDS011;12195;55.790;37.572;2024-01-10T09:28:18;9.15;;;3.62;;
20229;SDS011;12195;55.790;37.572;2024-01-10T09:30:51;6.05;;;3.85;;
20229;SDS011;12195;55.790;37.572;2024-01-10T09:33:25;5.17;;;3.17;;
20229;SDS011;12195;55.790;37.572;2024-01-10T09:35:58;7.00;;;3.60;;
20229;SDS011;12195;55.790;37.572;2024-01-10T09:38:35;5.75;;;3.42;;
20229;SDS011;12195;55.790;37.572;2024-01-10T09:41:11;5.05;;;3.20;;
20229;SDS011;12195;55.790;37.572;2024-01-10T09:43:45;6.10;;;3.50;;
20229;SDS011;12195;55.790;37.572;2024-01-10T09:46:18;5.92;;;3.47;;
20229;SDS011;12195;55.790;37.572;2024-01-10T09:48:51;14.50;;;4.12;;
20229;SDS011;12195;55.790;37.572;2024-01-10T09:51:27;3.98;;;2.20;;
20229;SDS011;12195;55.790;37.572;2024-01-10T09:54:02;6.78;;;2.83;;
20229;SDS011;12195;55.790;37.572;2024-01-10T09:56:36;4.10;;;2.75;;
20229;SDS011;12195;55.790;37.572;2024-01-10T09:59:10;6.03;;;3.00;;
20229;SDS011;12195;55.790;37.572;2024-01-10T10:01:44;5.85;;;3.72;;
20229;SDS011;12195;55.790;37.572;2024-01-10T10:04:18;14.98;;;5.62;;
20229;SDS011;12195;55.790;37.572;2024-01-10T10:07:00;9.03;;;4.20;;
20229;SDS011;12195;55.790;37.572;2024-01-10T10:09:34;7.15;;;3.95;;
20229;SDS011;12195;55.790;37.572;2024-01-10T10:12:08;9.35;;;3.90;;
20229;SDS011;12195;55.790;37.572;2024-01-10T10:14:43;6.05;;;3.10;;
20229;SDS011;12195;55.790;37.572;2024-01-10T10:17:16;6.75;;;3.72;;
20229;SDS011;12195;55.790;37.572;2024-01-10T10:19:50;12.93;;;4.83;;
20229;SDS011;12195;55.790;37.572;2024-01-10T10:22:25;8.13;;;2.77;;
20229;SDS011;12195;55.790;37.572;2024-01-10T10:24:58;8.48;;;3.62;;
20229;SDS011;12195;55.790;37.572;2024-01-10T10:27:35;9.13;;;4.72;;
20229;SDS011;12195;55.790;37.572;2024-01-10T10:30:09;5.40;;;3.08;;
20229;SDS011;12195;55.790;37.572;2024-01-10T10:32:43;23.10;;;7.40;;
20229;SDS011;12195;55.790;37.572;2024-01-10T10:37:55;6.72;;;4.30;;
20229;SDS011;12195;55.790;37.572;2024-01-10T10:40:31;9.35;;;4.80;;
20229;SDS011;12195;55.790;37.572;2024-01-10T10:43:04;8.90;;;4.92;;
20229;SDS011;12195;55.790;37.572;2024-01-10T10:45:38;15.88;;;5.47;;
20229;SDS011;12195;55.790;37.572;2024-01-10T10:48:12;15.60;;;5.53;;
20229;SDS011;12195;55.790;37.572;2024-01-10T10:50:59;7.92;;;4.30;;
20229;SDS011;12195;55.790;37.572;2024-01-10T10:53:36;9.83;;;4.92;;
20229;SDS011;12195;55.790;37.572;2024-01-10T10:56:12;10.48;;;4.92;;
20229;SDS011;12195;55.790;37.572;2024-01-10T10:58:45;12.85;;;6.15;;
20229;SDS011;12195;55.790;37.572;2024-01-10T11:01:20;10.68;;;4.30;;
20229;SDS011;12195;55.790;37.572;2024-01-10T11:03:54;7.90;;;4.05;;
20229;SDS011;12195;55.790;37.572;2024-01-10T11:06:28;7.30;;;4.15;;
20229;SDS011;12195;55.790;37.572;2024-01-10T11:09:06;8.55;;;4.47;;
20229;SDS011;12195;55.790;37.572;2024-01-10T11:11:47;10.23;;;5.50;;
20229;SDS011;12195;55.790;37.572;2024-01-10T11:20:27;9.63;;;4.80;;
20229;SDS011;12195;55.790;37.572;2024-01-10T11:23:20;11.48;;;5.58;;
20229;SDS011;12195;55.790;37.572;2024-01-10T11:25:50;12.73;;;5.45;;
20229;SDS011;12195;55.790;37.572;2024-01-10T11:31:01;10.75;;;6.00;;
20229;SDS011;12195;55.790;37.572;2024-01-10T11:33:35;9.78;;;5.37;;
20229;SDS011;12195;55.790;37.572;2024-01-10T11:36:17;17.82;;;6.03;;
20229;SDS011;12195;55.790;37.572;2024-01-10T11:39:02;7.15;;;3.72;;
20229;SDS011;12195;55.790;37.572;2024-01-10T11:41:38;9.10;;;5.25;;
20229;SDS011;12195;55.790;37.572;2024-01-10T11:46:55;11.53;;;5.35;;
20229;SDS011;12195;55.790;37.572;2024-01-10T11:49:30;9.83;;;4.97;;
20229;SDS011;12195;55.790;37.572;2024-01-10T11:52:09;9.13;;;5.08;;
20229;SDS011;12195;55.790;37.572;2024-01-10T11:54:45;4.62;;;2.60;;
20229;SDS011;12195;55.790;37.572;2024-01-10T11:59:56;9.43;;;5.53;;
20229;SDS011;12195;55.790;37.572;2024-01-10T12:02:34;8.58;;;5.10;;
20229;SDS011;12195;55.790;37.572;2024-01-10T12:05:09;7.90;;;3.87;;
20229;SDS011;12195;55.790;37.572;2024-01-10T12:07:44;10.70;;;4.85;;
20229;SDS011;12195;55.790;37.572;2024-01-10T12:10:20;7.90;;;4.10;;
20229;SDS011;12195;55.790;37.572;2024-01-10T12:12:53;13.30;;;5.15;;
20229;SDS011;12195;55.790;37.572;2024-01-10T12:15:26;11.05;;;4.62;;
20229;SDS011;12195;55.790;37.572;2024-01-10T12:17:59;62.13;;;9.33;;
20229;SDS011;12195;55.790;37.572;2024-01-10T12:20:34;6.08;;;3.83;;
20229;SDS011;12195;55.790;37.572;2024-01-10T12:23:10;8.33;;;4.25;;
20229;SDS011;12195;55.790;37.572;2024-01-10T12:25:43;6.33;;;3.20;;
20229;SDS011;12195;55.790;37.572;2024-01-10T12:30:48;11.28;;;4.42;;
20229;SDS011;12195;55.790;37.572;2024-01-10T12:33:24;9.15;;;4.30;;
20229;SDS011;12195;55.790;37.572;2024-01-10T12:36:07;5.45;;;3.70;;
20229;SDS011;12195;55.790;37.572;2024-01-10T12:38:42;7.67;;;3.90;;
20229;SDS011;12195;55.790;37.572;2024-01-10T12:41:18;9.28;;;4.08;;
20229;SDS011;12195;55.790;37.572;2024-01-10T12:43:54;9.65;;;4.37;;
20229;SDS011;12195;55.790;37.572;2024-01-10T12:46:27;5.03;;;2.58;;
20229;SDS011;12195;55.790;37.572;2024-01-10T12:49:06;15.15;;;4.60;;
20229;SDS011;12195;55.790;37.572;2024-01-10T12:51:39;6.65;;;4.45;;
20229;SDS011;12195;55.790;37.572;2024-01-10T12:54:13;7.78;;;4.40;;
20229;SDS011;12195;55.790;37.572;2024-01-10T12:56:48;13.03;;;4.42;;
20229;SDS011;12195;55.790;37.572;2024-01-10T12:59:22;11.50;;;4.78;;
20229;SDS011;12195;55.790;37.572;2024-01-10T13:01:55;11.10;;;4.97;;
20229;SDS011;12195;55.790;37.572;2024-01-10T13:04:29;9.50;;;5.17;;
20229;SDS011;12195;55.790;37.572;2024-01-10T13:07:02;8.75;;;4.42;;
20229;SDS011;12195;55.790;37.572;2024-01-10T13:09:37;9.50;;;5.53;;
20229;SDS011;12195;55.790;37.572;2024-01-10T13:12:12;8.83;;;4.60;;
20229;SDS011;12195;55.790;37.572;2024-01-10T13:14:45;8.88;;;4.83;;
20229;SDS011;12195;55.790;37.572;2024-01-10T13:17:19;9.18;;;4.33;;
20229;SDS011;12195;55.790;37.572;2024-01-10T13:19:52;7.72;;;4.33;;
20229;SDS011;12195;55.790;37.572;2024-01-10T13:22:25;9.90;;;4.95;;
20229;SDS011;12195;55.790;37.572;2024-01-10T13:24:57;8.00;;;5.08;;
20229;SDS011;12195;55.790;37.572;2024-01-10T13:27:30;8.73;;;4.45;;
20229;SDS011;12195;55.790;37.572;2024-01-10T13:30:03;12.40;;;5.20;;
20229;SDS011;12195;55.790;37.572;2024-01-10T13:35:09;5.55;;;3.87;;
20229;SDS011;12195;55.790;37.572;2024-01-10T13:37:43;9.65;;;4.28;;
20229;SDS011;12195;55.790;37.572;2024-01-10T13:40:18;8.78;;;3.92;;
20229;SDS011;12195;55.790;37.572;2024-01-10T13:42:53;7.75;;;4.12;;
20229;SDS011;12195;55.790;37.572;2024-01-10T13:45:26;9.30;;;5.17;;
20229;SDS011;12195;55.790;37.572;2024-01-10T13:47:59;19.02;;;5.03;;
20229;SDS011;12195;55.790;37.572;2024-01-10T13:50:32;8.50;;;4.22;;
20229;SDS011;12195;55.790;37.572;2024-01-10T13:53:08;7.33;;;4.10;;
20229;SDS011;12195;55.790;37.572;2024-01-10T13:55:41;6.75;;;3.58;;
20229;SDS011;12195;55.790;37.572;2024-01-10T13:58:14;9.88;;;4.25;;
20229;SDS011;12195;55.790;37.572;2024-01-10T14:00:48;4.87;;;2.58;;
20229;SDS011;12195;55.790;37.572;2024-01-10T14:03:21;8.38;;;3.35;;
20229;SDS011;12195;55.790;37.572;2024-01-10T14:05:55;6.20;;;3.33;;
20229;SDS011;12195;55.790;37.572;2024-01-10T14:08:28;9.10;;;4.03;;
20229;SDS011;12195;55.790;37.572;2024-01-10T14:11:02;8.13;;;3.58;;
20229;SDS011;12195;55.790;37.572;2024-01-10T14:13:36;8.53;;;3.80;;
20229;SDS011;12195;55.790;37.572;2024-01-10T14:16:10;7.00;;;3.20;;
20229;SDS011;12195;55.790;37.572;2024-01-10T14:18:43;6.87;;;3.33;;
20229;SDS011;12195;55.790;37.572;2024-01-10T14:21:19;9.50;;;3.70;;
20229;SDS011;12195;55.790;37.572;2024-01-10T14:23:52;6.87;;;2.72;;
20229;SDS011;12195;55.790;37.572;2024-01-10T14:26:26;6.05;;;3.10;;
20229;SDS011;12195;55.790;37.572;2024-01-10T14:29:00;5.33;;;3.05;;
20229;SDS011;12195;55.790;37.572;2024-01-10T14:31:33;8.03;;;3.90;;
20229;SDS011;12195;55.790;37.572;2024-01-10T14:34:08;7.22;;;4.30;;
20229;SDS011;12195;55.790;37.572;2024-01-10T14:36:41;6.70;;;3.47;;
20229;SDS011;12195;55.790;37.572;2024-01-10T14:39:14;5.28;;;2.90;;
20229;SDS011;12195;55.790;37.572;2024-01-10T14:41:51;28.47;;;5.58;;
20229;SDS011;12195;55.790;37.572;2024-01-10T14:44:26;11.97;;;3.65;;
20229;SDS011;12195;55.790;37.572;2024-01-10T14:46:59;9.83;;;4.45;;
20229;SDS011;12195;55.790;37.572;2024-01-10T14:49:36;6.92;;;3.72;;
20229;SDS011;12195;55.790;37.572;2024-01-10T14:52:11;5.17;;;3.00;;
20229;SDS011;12195;55.790;37.572;2024-01-10T14:54:49;9.80;;;4.33;;
20229;SDS011;12195;55.790;37.572;2024-01-10T14:57:23;8.10;;;3.50;;
20229;SDS011;12195;55.790;37.572;2024-01-10T14:59:57;9.33;;;4.40;;
20229;SDS011;12195;55.790;37.572;2024-01-10T15:02:31;7.95;;;3.77;;
20229;SDS011;12195;55.790;37.572;2024-01-10T15:05:07;9.45;;;6.30;;
20229;SDS011;12195;55.790;37.572;2024-01-10T15:07:42;7.17;;;3.70;;
20229;SDS011;12195;55.790;37.572;2024-01-10T15:10:16;7.05;;;3.85;;
20229;SDS011;12195;55.790;37.572;2024-01-10T15:12:49;9.50;;;5.00;;
20229;SDS011;12195;55.790;37.572;2024-01-10T15:15:22;11.70;;;4.78;;
20229;SDS011;12195;55.790;37.572;2024-01-10T15:17:56;8.38;;;4.45;;
20229;SDS011;12195;55.790;37.572;2024-01-10T15:20:31;6.45;;;3.85;;
20229;SDS011;12195;55.790;37.572;2024-01-10T15:23:06;17.12;;;4.85;;
20229;SDS011;12195;55.790;37.572;2024-01-10T15:28:11;11.33;;;4.20;;
20229;SDS011;12195;55.790;37.572;2024-01-10T15:30:46;8.83;;;4.45;;
20229;SDS011;12195;55.790;37.572;2024-01-10T15:33:19;9.43;;;4.83;;
20229;SDS011;12195;55.790;37.572;2024-01-10T15:35:52;2.80;;;2.08;;
20229;SDS011;12195;55.790;37.572;2024-01-10T15:38:30;5.90;;;3.45;;
20229;SDS011;12195;55.790;37.572;2024-01-10T15:41:05;7.53;;;4.58;;
20229;SDS011;12195;55.790;37.572;2024-01-10T15:43:40;11.22;;;4.35;;
20229;SDS011;12195;55.790;37.572;2024-01-10T15:46:19;8.35;;;4.60;;
20229;SDS011;12195;55.790;37.572;2024-01-10T15:48:53;9.65;;;5.12;;